Time;durP1;ratioP1;P1;durP2;ratioP2;P2;SDS_P1;SDS_P2;PMS_P1;PMS_P2;Temp;Humidity;BMP_temperature;BMP_pressure;BME280_temperature;BME280_humidity;BME280_pressure;Samples;Min_cycle;Max_cycle;Signal;HPM_P1;HPM_P2
2024/02/19 00:00:42;;;;;;;25.15;4.00;;;9.00;99.90;;;;;;20702076;28;20565;-41
2024/02/19 00:10:42;;;;;;;32.05;3.55;;;9.10;99.90;;;;;;20690949;28;20091;-38
2024/02/19 00:20:43;;;;;;;25.52;4.57;;;9.00;99.90;;;;;;20701001;28;20755;-39
2024/02/19 00:30:43;;;;;;;26.52;3.53;;;8.90;99.90;;;;;;20690679;28;20057;-38
2024/02/19 00:40:45;;;;;;;19.42;3.53;;;8.80;99.90;;;;;;20695823;28;20563;-38
2024/02/19 00:50:46;;;;;;;27.73;3.42;;;8.80;99.90;;;;;;20692377;28;20038;-39
2024/02/19 01:00:46;;;;;;;22.00;2.97;;;8.80;99.90;;;;;;20694394;28;20053;-39
2024/02/19 01:10:47;;;;;;;22.47;4.97;;;8.80;99.90;;;;;;20696116;28;20044;-38
2024/02/19 01:20:48;;;;;;;21.98;3.30;;;8.80;99.90;;;;;;20697314;28;20516;-38
2024/02/19 01:30:49;;;;;;;23.13;2.42;;;8.90;99.90;;;;;;20695579;28;20062;-38
2024/02/19 01:40:50;;;;;;;23.08;3.42;;;8.80;99.90;;;;;;20677183;28;20246;-38
2024/02/19 01:50:51;;;;;;;25.08;3.50;;;8.90;99.90;;;;;;20701917;28;20037;-38
2024/02/19 02:00:52;;;;;;;24.95;3.20;;;8.80;99.90;;;;;;20710410;28;20125;-38
2024/02/19 02:10:53;;;;;;;17.90;2.75;;;8.90;99.90;;;;;;20701607;28;20029;-38
2024/02/19 02:20:53;;;;;;;22.42;3.67;;;8.80;99.90;;;;;;20708096;28;20560;-38
2024/02/19 02:30:54;;;;;;;21.40;2.80;;;8.80;99.90;;;;;;20702734;28;20045;-38
2024/02/19 02:40:55;;;;;;;18.15;2.92;;;8.80;99.90;;;;;;20704919;28;20872;-38
2024/02/19 02:50:55;;;;;;;17.42;2.92;;;8.80;99.90;;;;;;20704489;28;20042;-38
2024/02/19 03:00:56;;;;;;;24.45;2.90;;;8.80;99.90;;;;;;20697416;28;20944;-38
2024/02/19 03:10:59;;;;;;;22.90;2.70;;;8.80;99.90;;;;;;20681673;28;20462;-38
2024/02/19 03:21:00;;;;;;;17.88;2.60;;;8.80;99.90;;;;;;20681518;28;20163;-38
2024/02/19 03:31:01;;;;;;;12.25;2.38;;;8.80;99.90;;;;;;20680173;28;20034;-38
2024/02/19 03:41:04;;;;;;;22.70;2.72;;;8.70;99.90;;;;;;20685915;28;20522;-38
2024/02/19 03:51:05;;;;;;;19.77;2.80;;;8.80;99.90;;;;;;20677298;28;20108;-38
2024/02/19 04:01:05;;;;;;;10.25;2.15;;;8.70;99.90;;;;;;20679925;28;20141;-38
2024/02/19 04:11:06;;;;;;;19.40;3.60;;;8.70;99.90;;;;;;20673781;28;20080;-38
2024/02/19 04:21:07;;;;;;;22.48;3.20;;;8.70;99.90;;;;;;20689937;28;20037;-38
2024/02/19 04:31:07;;;;;;;18.63;2.73;;;8.70;99.90;;;;;;20683824;28;20041;-38
2024/02/19 04:41:10;;;;;;;15.35;3.10;;;8.70;99.90;;;;;;20677069;28;21051;-38
2024/02/19 04:51:11;;;;;;;16.23;2.53;;;8.70;99.90;;;;;;20680277;28;20638;-38
2024/02/19 05:01:11;;;;;;;12.25;2.10;;;8.70;99.90;;;;;;20675353;28;20121;-38
2024/02/19 05:11:14;;;;;;;12.95;2.50;;;8.80;99.90;;;;;;20664773;28;20065;-38
2024/02/19 05:21:15;;;;;;;16.80;3.00;;;8.70;99.90;;;;;;20661857;28;20143;-38
2024/02/19 05:31:33;;;;;;;11.57;2.83;;;8.80;99.90;;;;;;20654033;28;20092;-38
2024/02/19 05:41:35;;;;;;;11.10;2.92;;;8.80;99.90;;;;;;20662277;28;20053;-38
2024/02/19 05:51:36;;;;;;;11.52;2.63;;;8.80;99.90;;;;;;20680292;28;20536;-38
2024/02/19 06:01:36;;;;;;;14.80;3.75;;;8.90;99.90;;;;;;20683374;28;20062;-38
2024/02/19 06:11:44;;;;;;;11.93;3.65;;;8.90;99.90;;;;;;20671898;28;20066;-39
2024/02/19 06:21:44;;;;;;;11.15;2.92;;;8.90;99.90;;;;;;20671651;28;20042;-38
2024/02/19 06:31:48;;;;;;;14.38;3.85;;;8.90;99.90;;;;;;20682078;28;20121;-38
2024/02/19 06:41:48;;;;;;;10.88;3.33;;;9.00;99.90;;;;;;20697475;28;20046;-38
2024/02/19 06:51:49;;;;;;;12.70;4.00;;;8.80;99.90;;;;;;20702378;28;20037;-38
2024/02/19 07:01:51;;;;;;;17.73;3.55;;;8.90;99.90;;;;;;20695137;28;20264;-38
2024/02/19 07:11:51;;;;;;;18.48;3.90;;;9.00;99.90;;;;;;20702318;28;20033;-38
2024/02/19 07:21:52;;;;;;;19.97;5.10;;;9.10;99.90;;;;;;20705146;28;20042;-38
2024/02/19 07:31:52;;;;;;;16.95;3.80;;;9.20;99.90;;;;;;20682045;28;20464;-39
2024/02/19 07:41:53;;;;;;;16.83;3.93;;;9.20;99.90;;;;;;20700079;28;20040;-38
2024/02/19 07:51:53;;;;;;;19.30;4.85;;;9.40;99.90;;;;;;20697098;28;20041;-38
2024/02/19 08:01:54;;;;;;;21.50;4.55;;;9.50;99.90;;;;;;20697771;28;20034;-38
2024/02/19 08:11:57;;;;;;;14.93;3.88;;;9.70;99.90;;;;;;20696854;28;20465;-38
2024/02/19 08:21:58;;;;;;;13.23;4.43;;;9.90;99.90;;;;;;20703947;28;20069;-38
2024/02/19 08:32:01;;;;;;;18.77;4.82;;;10.00;99.90;;;;;;20699221;28;20034;-38
2024/02/19 08:42:02;;;;;;;20.52;5.30;;;9.90;99.90;;;;;;20695642;28;20042;-38
2024/02/19 08:52:03;;;;;;;16.00;5.37;;;10.00;99.90;;;;;;20696471;28;20053;-38
2024/02/19 09:02:06;;;;;;;19.48;5.47;;;10.10;99.90;;;;;;20699427;28;20562;-38
2024/02/19 09:12:07;;;;;;;16.60;5.40;;;10.30;99.90;;;;;;20697140;28;20095;-38
2024/02/19 09:22:08;;;;;;;13.77;4.97;;;10.30;99.90;;;;;;20696571;28;20034;-38
2024/02/19 09:32:08;;;;;;;17.83;4.57;;;10.40;99.90;;;;;;20704478;28;20041;-38
2024/02/19 09:42:10;;;;;;;15.95;4.15;;;10.40;99.90;;;;;;20689825;28;20750;-38
2024/02/19 09:52:11;;;;;;;14.20;4.78;;;10.50;99.90;;;;;;20686126;28;20088;-38
2024/02/19 10:02:18;;;;;;;13.85;3.75;;;10.50;99.90;;;;;;20684933;28;20045;-38
2024/02/19 10:12:19;;;;;;;11.10;3.50;;;10.60;99.90;;;;;;20705033;28;20452;-38
2024/02/19 10:22:21;;;;;;;15.80;3.35;;;10.60;99.90;;;;;;20700799;28;20038;-38
2024/02/19 10:32:21;;;;;;;14.00;3.28;;;10.80;96.50;;;;;;20706514;28;20553;-38
2024/02/19 10:42:23;;;;;;;13.63;3.57;;;10.90;80.80;;;;;;20701180;28;21155;-38
2024/02/19 10:52:26;;;;;;;13.93;3.50;;;11.00;79.40;;;;;;20707796;28;20581;-38
2024/02/19 11:02:29;;;;;;;14.50;3.47;;;11.20;67.90;;;;;;20702332;28;20038;-38
2024/02/19 11:12:29;;;;;;;14.65;3.10;;;11.30;66.10;;;;;;20702180;28;20411;-38
2024/02/19 11:22:30;;;;;;;12.40;3.03;;;11.40;56.70;;;;;;20699443;28;20584;-38
2024/02/19 11:32:31;;;;;;;14.23;3.50;;;11.40;59.00;;;;;;20695238;28;20477;-38
2024/02/19 11:42:32;;;;;;;8.57;2.60;;;11.40;47.10;;;;;;20700394;28;20054;-38
2024/02/19 11:52:33;;;;;;;7.53;2.95;;;11.20;55.50;;;;;;20693823;28;20046;-38
2024/02/19 12:02:42;;;;;;;10.63;2.53;;;11.30;43.20;;;;;;20696113;28;20553;-39
2024/02/19 12:12:43;;;;;;;13.45;3.95;;;11.40;34.00;;;;;;20691851;28;20235;-39
2024/02/19 12:22:44;;;;;;;10.63;2.88;;;11.50;28.90;;;;;;20694485;28;20172;-39
2024/02/19 12:32:45;;;;;;;16.53;3.87;;;11.50;26.10;;;;;;20698319;28;20042;-39
2024/02/19 12:42:46;;;;;;;12.60;3.83;;;11.50;29.00;;;;;;20703925;28;20129;-39
2024/02/19 12:52:46;;;;;;;13.07;3.60;;;11.50;28.20;;;;;;20706337;28;20556;-39
2024/02/19 13:02:47;;;;;;;13.33;5.20;;;11.20;32.00;;;;;;20690623;28;20398;-39
2024/02/19 13:12:50;;;;;;;13.02;4.50;;;11.10;40.20;;;;;;20697444;28;20556;-39
2024/02/19 13:22:51;;;;;;;15.25;4.10;;;10.80;50.70;;;;;;20690593;28;20577;-39
2024/02/19 13:32:51;;;;;;;14.52;4.40;;;10.70;48.50;;;;;;20688111;28;20530;-39
2024/02/19 13:42:53;;;;;;;15.57;4.38;;;10.50;60.80;;;;;;20686235;28;20719;-39
2024/02/19 13:52:54;;;;;;;17.33;5.00;;;10.40;70.30;;;;;;20686918;28;20296;-39
2024/02/19 14:02:55;;;;;;;14.50;4.20;;;10.40;89.60;;;;;;20685605;28;20115;-39
2024/02/19 14:12:56;;;;;;;13.40;4.07;;;10.30;99.30;;;;;;20682650;28;21015;-39
2024/02/19 14:22:57;;;;;;;15.25;4.43;;;10.30;99.90;;;;;;20684117;28;20041;-39
2024/02/19 14:32:57;;;;;;;13.73;5.07;;;10.20;99.90;;;;;;20687107;28;20086;-39
2024/02/19 14:42:58;;;;;;;14.15;4.70;;;10.30;99.90;;;;;;20693283;28;20552;-39
2024/02/19 14:52:59;;;;;;;16.80;4.32;;;10.20;99.90;;;;;;20703583;28;20041;-39
2024/02/19 15:02:59;;;;;;;11.20;2.93;;;10.30;99.90;;;;;;20704759;28;20045;-39
2024/02/19 15:13:00;;;;;;;8.40;2.60;;;10.30;99.90;;;;;;20701530;28;20580;-39
2024/02/19 15:23:02;;;;;;;13.18;3.38;;;10.20;99.90;;;;;;20702651;28;20073;-40
2024/02/19 15:33:03;;;;;;;15.13;4.43;;;10.00;99.90;;;;;;20692748;28;20042;-39
2024/02/19 15:43:03;;;;;;;13.47;4.13;;;10.10;99.90;;;;;;20698734;28;20628;-39
2024/02/19 15:53:05;;;;;;;16.85;4.20;;;10.00;99.90;;;;;;20699573;28;20551;-39
2024/02/19 16:03:05;;;;;;;17.85;4.38;;;10.00;99.90;;;;;;20693477;28;20505;-39
2024/02/19 16:13:06;;;;;;;15.30;4.20;;;9.90;99.90;;;;;;20700944;28;20505;-39
2024/02/19 16:23:07;;;;;;;16.08;3.35;;;9.90;99.90;;;;;;20697141;28;20480;-39
2024/02/19 16:33:07;;;;;;;16.38;3.38;;;9.80;99.90;;;;;;20696929;28;20042;-39
2024/02/19 16:43:08;;;;;;;14.70;3.67;;;9.70;99.90;;;;;;20699321;28;20560;-39
2024/02/19 16:53:08;;;;;;;19.88;3.47;;;9.60;99.90;;;;;;20695529;28;20042;-39
2024/02/19 17:03:09;;;;;;;22.92;2.50;;;9.60;99.90;;;;;;20701745;28;20046;-39
2024/02/19 17:13:10;;;;;;;19.97;4.00;;;9.40;99.90;;;;;;20699040;28;20033;-39
2024/02/19 17:23:14;;;;;;;20.98;3.50;;;9.30;99.90;;;;;;20694602;28;20470;-39
2024/02/19 17:33:14;;;;;;;20.27;3.05;;;9.20;99.90;;;;;;20703092;28;20046;-39
2024/02/19 17:43:15;;;;;;;23.30;3.53;;;9.20;99.90;;;;;;20685918;28;20057;-39
2024/02/19 17:53:16;;;;;;;14.93;2.58;;;9.10;99.90;;;;;;20692923;28;20076;-39
2024/02/19 18:03:17;;;;;;;16.92;2.78;;;9.00;99.90;;;;;;20639301;28;20127;-39
2024/02/19 18:13:18;;;;;;;23.50;3.80;;;9.00;99.90;;;;;;20672930;28;20050;-39
2024/02/19 18:23:18;;;;;;;20.15;5.25;;;8.90;99.90;;;;;;20684747;28;20034;-39
2024/02/19 18:33:21;;;;;;;22.75;3.95;;;8.80;99.90;;;;;;20659449;28;20282;-39
2024/02/19 18:43:25;;;;;;;25.75;4.68;;;8.80;99.90;;;;;;20702079;28;20050;-39
2024/02/19 18:53:26;;;;;;;31.70;4.60;;;8.70;99.00;;;;;;20702861;28;20051;-39
2024/02/19 19:03:27;;;;;;;25.55;4.43;;;8.60;97.10;;;;;;20706163;28;20172;-39
2024/02/19 19:13:28;;;;;;;20.60;4.45;;;8.60;95.40;;;;;;20703379;28;20040;-39
2024/02/19 19:23:28;;;;;;;27.00;4.93;;;8.40;99.90;;;;;;20704654;28;20545;-39
2024/02/19 19:33:29;;;;;;;20.90;4.00;;;8.40;96.60;;;;;;20702400;28;20453;-39
2024/02/19 19:43:32;;;;;;;25.80;3.65;;;8.30;98.60;;;;;;20693186;28;20037;-39
2024/02/19 19:53:33;;;;;;;26.27;4.22;;;8.30;99.90;;;;;;20696379;28;20037;-39
2024/02/19 20:03:34;;;;;;;18.13;3.15;;;8.30;99.90;;;;;;20675660;28;20044;-39
2024/02/19 20:13:35;;;;;;;18.83;3.30;;;8.10;98.00;;;;;;20651788;28;20068;-39
2024/02/19 20:23:39;;;;;;;26.38;4.13;;;7.90;99.90;;;;;;20690881;28;20049;-39
2024/02/19 20:33:40;;;;;;;23.67;3.60;;;7.90;99.90;;;;;;20682196;28;20388;-39
2024/02/19 20:43:40;;;;;;;28.25;5.07;;;7.90;99.90;;;;;;20686374;28;20424;-39
2024/02/19 20:53:44;;;;;;;23.63;3.25;;;7.80;99.90;;;;;;20687502;28;20045;-39
2024/02/19 21:03:45;;;;;;;19.73;3.13;;;7.70;99.90;;;;;;20683050;28;20472;-38
2024/02/19 21:13:46;;;;;;;24.10;3.72;;;7.50;99.90;;;;;;20695474;28;20801;-39
2024/02/19 21:23:46;;;;;;;22.75;3.38;;;7.30;99.90;;;;;;20696499;28;20057;-39
2024/02/19 21:33:47;;;;;;;15.88;3.08;;;7.10;99.90;;;;;;20694465;28;20438;-39
2024/02/19 21:43:47;;;;;;;21.77;3.20;;;6.90;99.90;;;;;;20693318;28;20081;-39
2024/02/19 21:53:48;;;;;;;20.27;3.33;;;6.80;99.90;;;;;;20699955;28;20046;-39
2024/02/19 22:03:50;;;;;;;18.75;4.72;;;6.70;99.90;;;;;;20702577;28;20049;-39
2024/02/19 22:13:50;;;;;;;18.60;3.97;;;6.70;99.90;;;;;;20713084;28;20481;-39
2024/02/19 22:23:52;;;;;;;15.10;2.50;;;6.60;99.90;;;;;;20719478;28;20042;-38
2024/02/19 22:33:52;;;;;;;18.30;3.05;;;6.50;99.90;;;;;;20722929;28;20488;-39
2024/02/19 22:43:53;;;;;;;13.52;2.88;;;6.40;99.90;;;;;;20696114;28;20050;-38
2024/02/19 22:53:54;;;;;;;25.40;3.38;;;6.30;99.90;;;;;;20714932;28;20112;-38
2024/02/19 23:03:55;;;;;;;20.27;3.28;;;6.20;99.90;;;;;;20688376;28;20045;-39
2024/02/19 23:13:55;;;;;;;14.40;2.95;;;6.10;99.90;;;;;;20694899;28;20064;-39
2024/02/19 23:23:56;;;;;;;19.10;2.72;;;5.90;99.90;;;;;;20653270;28;20068;-39
2024/02/19 23:33:56;;;;;;;24.60;3.17;;;5.90;99.90;;;;;;20689653;28;20486;-38
2024/02/19 23:43:57;;;;;;;15.27;2.45;;;5.80;99.90;;;;;;20702549;28;20048;-40
2024/02/19 23:53:58;;;;;;;15.85;2.58;;;5.70;99.90;;;;;;20709449;28;20123;-39
